ADDS TAF Board (Experimental) INFO Settings
IDs: Format: Expanded Condensed

KPDX - Portland Intl Arpt, OR, US

Issued at 1129 UTC 30 Aug 2015
Updated at: 1151 UTC 30 Aug 2015
Time1138Z 30/12Z 30/13Z 30/14Z 30/15Z 30/16Z 30/17Z 30/18Z 30/19Z 30/20Z 30/21Z 30/22Z 30/23Z 31/00Z
Type OBS PRVL PRVL PRVL PRVL PRVL PRVL PRVL PRVL PRVL PRVL PRVL PRVL PRVL
VIS 10 >6 >6 >6 >6 >6 >6 >6 >6 >6 >6 >6 >6 >6
CIG 10 60 60 60 60 60 60 60 60 -- -- -- -- --
Cover OVC BKN BKN BKN BKN BKN BKN BKN BKN SCT SCT SCT SCT SCT
FltCat MVFR VFR VFR VFR VFR VFR VFR VFR VFR VFR VFR VFR VFR VFR
WX -- -SHRA -SHRA -SHRA -SHRA -SHRA -SHRA -SHRA -SHRA VCSH VCSH VCSH VCSH VCSH
WDir 170 180 180 180 180 180 180 180 180 200 200 200 200 200
WSpd 9 12 12 12 12 12 12 12 12 10 10 10 10 10
WGst -- -- -- -- -- -- -- -- -- -- -- -- -- --
R03/21
XWnd -7 -8 -8 -8 -8 -8 -8 -8 -8 -4 -4 -4 -4 -4
HWnd -5 -8 -8 -8 -8 -8 -8 -8 -8 -9 -9 -9 -9 -9
R10/28
XWnd -7 -10 -10 -10 -10 -10 -10 -10 -10 -10 -10 -10 -10 -10
HWnd 6 6 6 6 6 6 6 6 6 2 2 2 2 2

NOTE: TEMPO conditions in [brackets]. Keep in mind TEMPO conditions might be better (lower impact) than prevailing conditions.

Raw TAF
KPDX 301129Z 3012/3112 18012KT P6SM -SHRA SCT035 BKN060
  FM302000 20010KT P6SM VCSH SCT040
  FM310800 21008KT P6SM BKN080


Raw METAR
KPDX 301138Z 17009KT 10SM BKN010 OVC050 16/14 A2987 RMK AO2 RAE01B26E36 P0000 T01560144 $
KPDX 301053Z 20005KT 10SM -RA FEW015 BKN055 OVC075 16/14 A2986 RMK AO2 SLP110 P0001 T01560139 $
KPDX 300953Z 20007KT 10SM -RA FEW015 BKN070 OVC090 16/15 A2984 RMK AO2 SLP101 P0013 T01610150 $
KPDX 300853Z 21006KT 5SM RA BR FEW026 BKN038 OVC049 16/15 A2983 RMK AO2 SLP099 P0010 60011 T01610150 53006 $

METAR Board
Radar Display
Forecast Discussion

TAF Board Legend

Potential Impact
Threat None Slight Moderate High
Visibility (sm) ≥5.1 5.1>X≥3 3>X≥1 <1
Ceiling (100 ft) ≥30.1 30.1>X≥10 10>X≥5 <5
Wind Speed (kt) <10 10≤X<20 20≤X<30 ≥30
Wind Gust (kt) <15 15≤X<25 25≤X<35 ≥35
Weather No Wx Reported VCTS,-TS,-FZRA,SN TS,FZRA +TS,+FZRA,+SN